Time;durP1;ratioP1;P1;durP2;ratioP2;P2;SDS_P1;SDS_P2;PMS_P1;PMS_P2;Temp;Humidity;BMP_temperature;BMP_pressure;BME280_temperature;BME280_humidity;BME280_pressure;Samples;Min_cycle;Max_cycle;Signal;HPM_P1;HPM_P2
2023/06/24 00:01:53;;;;;;;5.30;4.17;;;16.50;89.90;;;16.74;73.87;98815.88;4990422;28;20920;-86
2023/06/24 00:04:20;;;;;;;3.93;3.53;;;16.70;89.80;;;16.53;74.83;98820.84;4971910;28;20466;-85
2023/06/24 00:06:47;;;;;;;5.07;4.60;;;16.60;89.90;;;16.29;75.72;98804.44;4972693;28;20444;-82
2023/06/24 00:09:16;;;;;;;4.70;4.27;;;16.50;90.20;;;16.25;76.07;98814.16;4987891;28;20461;-82
2023/06/24 00:11:45;;;;;;;4.90;4.40;;;16.30;90.40;;;16.29;76.25;98809.88;4965006;28;20486;-82
2023/06/24 00:14:14;;;;;;;9.43;4.70;;;16.30;90.90;;;16.32;76.42;98811.31;4991765;28;20838;-87
2023/06/24 00:16:42;;;;;;;5.50;4.47;;;16.20;91.00;;;16.29;76.52;98815.34;4985596;28;20455;-84
2023/06/24 00:19:09;;;;;;;4.67;4.20;;;16.20;91.20;;;16.26;76.65;98811.22;4990103;28;20479;-85
2023/06/24 00:21:37;;;;;;;5.67;4.77;;;16.20;91.40;;;16.14;77.05;98819.31;4969962;28;20503;-83
2023/06/24 00:24:05;;;;;;;4.77;4.00;;;16.00;91.50;;;16.02;77.34;98809.47;4991402;28;20449;-85
2023/06/24 00:26:33;;;;;;;6.23;3.90;;;15.90;92.00;;;15.65;78.54;98780.38;4975289;28;20891;-84
2023/06/24 00:29:03;;;;;;;6.07;4.97;;;15.70;92.70;;;15.69;79.13;98803.38;4988730;28;20532;-77
2023/06/24 00:31:30;;;;;;;6.13;4.13;;;15.60;93.20;;;15.68;79.53;98804.44;4983933;28;20457;-85
2023/06/24 00:33:57;;;;;;;5.77;4.63;;;15.50;94.00;;;15.56;79.92;98797.06;4989860;28;20552;-83
2023/06/24 00:36:26;;;;;;;5.73;4.40;;;15.40;94.20;;;15.50;80.47;98799.84;4989539;28;20938;-83
2023/06/24 00:38:53;;;;;;;7.00;5.50;;;15.40;94.60;;;15.41;81.29;98802.88;4991661;28;20565;-87
2023/06/24 00:41:21;;;;;;;6.20;4.93;;;15.30;95.10;;;15.33;81.68;98802.34;4989670;28;20757;-86
2023/06/24 00:43:50;;;;;;;4.83;4.43;;;15.20;95.50;;;15.41;81.57;98793.91;4989118;28;21120;-87
2023/06/24 00:46:19;;;;;;;7.90;4.97;;;15.30;95.60;;;15.38;81.60;98795.19;4986944;28;20461;-88
2023/06/24 00:48:46;;;;;;;5.83;5.23;;;15.40;95.10;;;15.15;82.13;98774.09;4989539;28;21379;-89
2023/06/24 00:51:14;;;;;;;4.97;4.57;;;15.30;95.10;;;15.29;82.29;98781.03;4959451;28;20528;-85
2023/06/24 00:53:41;;;;;;;6.17;5.00;;;15.30;95.20;;;15.25;82.16;98779.00;4990152;28;20458;-84
2023/06/24 00:56:08;;;;;;;7.60;4.53;;;15.20;95.50;;;15.15;83.02;98784.97;4995355;28;20445;-83
2023/06/24 00:58:38;;;;;;;7.67;5.47;;;15.10;96.00;;;15.06;83.38;98772.72;4991613;28;20459;-87
2023/06/24 01:01:08;;;;;;;6.00;5.17;;;15.00;96.60;;;14.97;83.52;98761.28;4974970;28;20467;-81
2023/06/24 01:03:37;;;;;;;5.70;5.00;;;14.90;97.10;;;14.96;84.44;98781.41;4974761;28;20462;-83
2023/06/24 01:06:05;;;;;;;5.40;4.90;;;14.80;97.90;;;14.92;84.65;98786.47;4993807;28;20515;-79
2023/06/24 01:08:32;;;;;;;4.40;4.00;;;14.80;98.60;;;14.78;84.99;98774.88;4992219;28;20444;-83
2023/06/24 01:11:00;;;;;;;6.47;5.77;;;14.70;98.90;;;14.82;85.30;98780.72;4992214;28;20459;-83
2023/06/24 01:13:27;;;;;;;5.43;4.93;;;14.70;99.50;;;14.81;85.35;98787.22;4986965;28;20495;-82
2023/06/24 01:15:55;;;;;;;5.70;5.10;;;14.60;99.70;;;14.41;85.47;98732.09;4989784;28;20950;-85
2023/06/24 01:18:31;;;;;;;5.63;4.80;;;14.60;99.80;;;14.72;85.91;98776.63;4989770;28;20522;-82
2023/06/24 01:21:05;;;;;;;6.07;5.43;;;14.60;99.90;;;14.72;85.87;98781.25;4990040;28;20546;-83
2023/06/24 01:24:02;;;;;;;7.77;5.60;;;14.60;99.90;;;14.61;87.34;98779.22;4981065;28;20987;-77
2023/06/24 01:27:07;;;;;;;5.90;5.30;;;14.50;99.90;;;14.48;87.31;98774.69;4968426;28;20448;-86
2023/06/24 01:29:50;;;;;;;6.77;5.10;;;14.50;99.90;;;14.47;87.78;98773.03;4989990;28;20450;-86
2023/06/24 01:32:28;;;;;;;6.87;5.53;;;14.40;99.90;;;14.43;88.35;98773.50;4987490;28;20468;-83
2023/06/24 01:35:00;;;;;;;5.80;5.30;;;14.30;99.90;;;14.37;88.89;98768.97;4989443;28;20449;-87
2023/06/24 01:37:33;;;;;;;5.50;4.83;;;14.30;99.90;;;14.34;88.71;98765.84;4998663;28;20447;-78
2023/06/24 01:40:10;;;;;;;6.83;5.57;;;14.20;99.90;;;14.29;89.32;98761.91;5004103;28;20475;-77
2023/06/24 01:42:41;;;;;;;5.83;5.23;;;14.20;99.90;;;14.25;90.14;98765.28;4994871;28;20722;-83
2023/06/24 01:45:13;;;;;;;8.60;5.67;;;14.10;99.90;;;14.06;90.74;98746.19;4995533;28;20463;-88
2023/06/24 01:47:45;;;;;;;6.60;5.87;;;14.10;99.90;;;14.15;90.64;98755.72;4992089;28;20493;-87
2023/06/24 01:50:14;;;;;;;7.03;5.40;;;14.00;99.90;;;14.15;91.19;98747.56;4987539;28;21036;-85
2023/06/24 01:52:45;;;;;;;6.20;5.60;;;14.00;99.90;;;14.13;90.99;98748.88;4979455;28;20536;-84
2023/06/24 01:55:22;;;;;;;8.60;5.80;;;14.00;99.90;;;14.20;90.49;98749.63;4982517;28;20458;-88
2023/06/24 01:57:51;;;;;;;6.90;5.97;;;14.00;99.90;;;14.13;91.06;98752.41;4987901;28;20456;-85
2023/06/24 02:00:19;;;;;;;6.70;5.30;;;14.00;99.90;;;14.13;91.09;98752.41;4970981;28;20511;-84
2023/06/24 02:02:49;;;;;;;8.80;6.30;;;14.00;99.90;;;14.12;91.21;98752.66;4989200;28;20456;-88
2023/06/24 02:05:19;;;;;;;6.90;5.80;;;14.00;99.90;;;14.03;91.91;98749.38;5001408;28;20456;-77
2023/06/24 02:07:49;;;;;;;7.90;6.80;;;14.00;99.90;;;14.05;91.55;98749.97;5004745;28;20475;-79
2023/06/24 02:10:17;;;;;;;7.13;6.20;;;13.90;99.90;;;13.95;92.42;98733.31;5001202;28;20531;-78
2023/06/24 02:12:49;;;;;;;7.60;5.70;;;13.90;99.90;;;14.00;92.34;98741.63;5004502;28;20504;-84
2023/06/24 02:15:19;;;;;;;6.60;5.70;;;13.90;99.90;;;13.97;92.36;98747.50;4973214;28;20447;-80
2023/06/24 02:17:50;;;;;;;7.20;5.97;;;13.90;99.90;;;13.96;91.96;98743.97;5009029;28;20477;-81
2023/06/24 02:20:18;;;;;;;7.47;5.50;;;13.90;99.90;;;13.94;92.49;98739.81;4986443;28;20954;-85
2023/06/24 02:22:46;;;;;;;7.17;6.20;;;13.80;99.90;;;13.87;92.97;98735.25;4990350;28;20464;-83
2023/06/24 02:25:14;;;;;;;8.00;6.37;;;13.80;99.90;;;13.86;93.52;98752.59;5000530;28;20537;-76
2023/06/24 02:27:42;;;;;;;8.10;6.10;;;13.80;99.90;;;13.83;93.32;98731.31;5006986;28;20459;-79
2023/06/24 02:30:11;;;;;;;7.37;6.00;;;13.80;99.90;;;13.88;93.52;98738.78;4998681;28;20457;-81
2023/06/24 02:32:38;;;;;;;6.70;5.73;;;13.80;99.90;;;13.84;93.33;98738.41;4993851;28;20935;-82
2023/06/24 02:35:08;;;;;;;7.00;6.17;;;13.70;99.90;;;13.73;94.20;98714.69;4991182;28;20441;-84
2023/06/24 02:37:35;;;;;;;6.77;6.10;;;13.70;99.90;;;13.82;94.11;98728.81;4988982;28;20514;-86
2023/06/24 02:40:05;;;;;;;7.47;6.67;;;13.70;99.90;;;13.92;93.77;98744.63;4998916;28;20483;-79
2023/06/24 02:42:32;;;;;;;6.13;5.37;;;13.70;99.90;;;13.98;93.19;98752.75;4990211;28;20452;-83
2023/06/24 02:45:00;;;;;;;7.90;7.10;;;13.80;99.90;;;14.24;92.06;98750.03;4972396;28;20530;-84
2023/06/24 02:47:27;;;;;;;7.27;6.50;;;14.10;99.90;;;14.20;92.08;98746.09;4989855;28;20463;-84
2023/06/24 02:49:57;;;;;;;7.07;6.20;;;14.10;99.90;;;14.30;92.00;98757.28;4972931;28;20480;-82
2023/06/24 02:52:28;;;;;;;7.00;6.40;;;14.20;99.90;;;14.22;92.68;98746.72;4986340;28;20813;-80
2023/06/24 02:54:56;;;;;;;9.97;6.80;;;14.20;99.90;;;14.09;92.91;98739.47;4994168;28;20547;-85
2023/06/24 02:57:25;;;;;;;8.20;6.87;;;14.10;99.90;;;14.21;92.68;98758.63;4988475;28;20512;-88
2023/06/24 02:59:52;;;;;;;8.80;6.80;;;14.20;99.90;;;14.32;91.82;98755.19;4984562;28;20922;-83
2023/06/24 03:02:20;;;;;;;7.83;7.03;;;14.20;99.90;;;14.13;92.15;98755.13;4988132;28;20456;-87
2023/06/24 03:04:48;;;;;;;8.27;6.27;;;14.10;99.90;;;14.09;92.45;98762.06;4989700;28;20463;-83
2023/06/24 03:07:20;;;;;;;8.37;6.77;;;14.00;99.90;;;14.14;92.41;98764.94;4990749;28;20944;-83
2023/06/24 03:09:49;;;;;;;8.63;6.93;;;14.00;99.90;;;14.06;92.03;98757.06;4996745;28;20508;-78
2023/06/24 03:12:16;;;;;;;9.43;6.03;;;13.90;99.90;;;14.02;92.43;98755.81;4995899;28;20987;-85
2023/06/24 03:14:43;;;;;;;8.80;6.40;;;13.90;99.90;;;14.00;92.89;98763.38;4973146;28;20453;-84
2023/06/24 03:17:11;;;;;;;8.00;7.20;;;13.80;99.90;;;13.98;92.70;98771.75;4970503;28;20478;-85
2023/06/24 03:19:38;;;;;;;8.40;6.90;;;13.90;99.90;;;13.97;92.74;98758.38;4987611;28;21201;-86
2023/06/24 03:22:06;;;;;;;7.50;6.70;;;13.90;99.90;;;14.00;92.84;98769.66;4968190;28;20449;-84
2023/06/24 03:24:33;;;;;;;7.70;6.67;;;13.90;99.90;;;13.98;92.85;98770.91;4977324;28;20460;-84
2023/06/24 03:27:01;;;;;;;8.47;6.47;;;13.90;99.90;;;13.98;92.78;98779.06;4991550;28;20452;-86
2023/06/24 03:29:29;;;;;;;7.03;6.20;;;13.90;99.90;;;13.94;93.06;98781.38;4977326;28;20448;-85
2023/06/24 03:31:57;;;;;;;7.00;6.00;;;13.80;99.90;;;13.87;93.65;98786.84;5000654;28;20471;-84
2023/06/24 03:34:25;;;;;;;7.30;6.23;;;13.80;99.90;;;13.85;94.18;98788.13;4986954;28;20514;-84
2023/06/24 03:36:54;;;;;;;7.97;5.93;;;13.70;99.90;;;13.86;94.10;98787.91;4966876;28;20517;-86
2023/06/24 03:39:22;;;;;;;6.90;6.30;;;13.80;99.90;;;13.67;93.67;98745.41;4991919;28;20560;-82
2023/06/24 03:41:49;;;;;;;8.00;7.07;;;13.90;99.90;;;14.02;93.15;98805.56;4991059;28;20476;-87
2023/06/24 03:44:17;;;;;;;7.90;6.97;;;13.90;99.90;;;13.96;92.92;98795.59;4993226;28;20469;-81
2023/06/24 03:46:45;;;;;;;9.53;7.80;;;13.90;99.90;;;14.14;92.48;98818.47;4990586;28;20465;-86
2023/06/24 03:49:12;;;;;;;7.33;6.37;;;14.00;99.90;;;14.10;92.37;98812.63;4995059;28;20456;-80
2023/06/24 03:51:39;;;;;;;6.30;5.67;;;14.00;99.90;;;14.20;92.50;98816.75;4987947;28;20523;-88
2023/06/24 03:54:07;;;;;;;6.73;6.00;;;14.10;99.90;;;14.52;92.26;98816.72;4996516;28;20456;-84
2023/06/24 03:56:34;;;;;;;8.13;6.00;;;14.40;99.90;;;14.50;91.73;98811.50;4988621;28;20959;-83
2023/06/24 03:59:02;;;;;;;7.30;6.60;;;14.50;99.90;;;14.64;90.02;98823.13;4989916;28;20445;-87
2023/06/24 04:01:31;;;;;;;7.20;6.13;;;14.60;99.90;;;14.52;89.90;98820.25;4986860;28;20483;-85
2023/06/24 04:03:59;;;;;;;6.50;5.60;;;14.60;99.90;;;14.54;90.00;98811.91;4987098;28;20495;-85
2023/06/24 04:06:26;;;;;;;7.30;6.03;;;14.60;99.90;;;14.82;89.74;98829.69;4989206;28;21242;-82
2023/06/24 04:08:54;;;;;;;6.33;5.30;;;14.80;99.90;;;15.51;87.04;98824.13;4985413;28;20945;-82
2023/06/24 04:11:22;;;;;;;6.60;5.97;;;15.40;99.90;;;16.29;82.58;98815.34;4964551;28;20457;-78
2023/06/24 04:13:49;;;;;;;6.40;5.33;;;16.30;96.60;;;16.97;78.38;98815.06;4985725;28;20466;-80
2023/06/24 04:16:16;;;;;;;7.00;5.90;;;17.00;92.60;;;17.72;73.55;98820.78;4967067;28;21073;-79
2023/06/24 04:18:45;;;;;;;6.63;5.90;;;17.80;90.30;;;18.40;71.64;98823.69;4983120;28;20456;-77
2023/06/24 04:21:14;;;;;;;6.77;5.70;;;18.60;89.00;;;18.58;69.60;98821.81;4986388;28;20482;-79
2023/06/24 04:23:41;;;;;;;6.50;5.50;;;19.10;86.60;;;19.07;68.20;98831.34;4983527;28;20517;-79
2023/06/24 04:26:08;;;;;;;5.93;5.30;;;19.60;85.80;;;19.35;65.41;98835.03;4973454;28;20467;-78
2023/06/24 04:28:36;;;;;;;4.90;4.50;;;19.90;83.60;;;19.72;62.22;98833.56;4995134;28;20468;-78
2023/06/24 04:31:05;;;;;;;4.93;4.43;;;20.10;81.90;;;20.32;60.31;98837.25;4982385;28;20456;-80
2023/06/24 04:33:32;;;;;;;5.63;4.57;;;20.40;80.40;;;20.82;58.78;98837.13;5000872;28;20453;-76
2023/06/24 04:36:01;;;;;;;5.47;4.97;;;21.00;78.80;;;21.27;56.83;98831.38;4977076;28;20454;-79
2023/06/24 04:38:28;;;;;;;4.70;4.30;;;21.30;77.10;;;21.52;56.05;98837.03;4987265;28;20474;-74
2023/06/24 04:40:57;;;;;;;4.83;4.30;;;21.60;76.30;;;20.26;59.06;98788.91;4967181;28;20481;-78
2023/06/24 04:43:24;;;;;;;5.03;4.50;;;21.30;75.60;;;21.55;56.70;98840.31;4983103;28;20446;-78
2023/06/24 04:45:51;;;;;;;5.37;4.87;;;21.50;75.90;;;22.09;54.44;98836.41;4983426;28;20862;-77
2023/06/24 04:48:19;;;;;;;5.73;5.23;;;21.90;74.80;;;22.58;53.00;98834.31;4986838;28;20572;-79
2023/06/24 04:50:46;;;;;;;6.40;5.00;;;22.40;73.20;;;21.68;54.11;98850.03;4981765;28;20519;-81
2023/06/24 04:53:14;;;;;;;4.83;4.43;;;22.40;71.50;;;21.15;56.94;98853.59;4983186;28;20464;-77
2023/06/24 04:55:41;;;;;;;4.73;3.90;;;21.80;72.90;;;22.29;53.78;98848.56;4989222;28;20454;-76
2023/06/24 04:58:09;;;;;;;5.50;5.00;;;22.30;72.50;;;21.96;53.24;98845.19;4970136;28;20865;-73
2023/06/24 05:00:36;;;;;;;5.27;4.77;;;22.70;70.20;;;22.35;53.48;98847.47;4962936;28;20536;-76
2023/06/24 05:03:03;;;;;;;5.10;4.53;;;22.40;71.60;;;22.53;52.33;98854.44;4968895;28;20445;-72
2023/06/24 05:05:31;;;;;;;5.70;4.60;;;22.70;70.50;;;23.70;49.61;98842.66;4985918;28;20463;-74
2023/06/24 05:07:58;;;;;;;4.87;4.37;;;23.40;69.60;;;24.28;48.66;98863.34;4966250;28;20949;-73
2023/06/24 05:10:27;;;;;;;5.40;4.70;;;24.00;67.90;;;24.27;47.61;98864.47;4967131;28;20971;-74
2023/06/24 05:12:54;;;;;;;5.00;4.60;;;24.40;66.20;;;24.11;47.07;98832.56;4982942;28;20531;-74
2023/06/24 05:15:21;;;;;;;5.20;4.70;;;24.60;65.00;;;23.60;49.02;98862.84;4988604;28;20464;-73
2023/06/24 05:17:48;;;;;;;5.53;4.37;;;24.30;64.90;;;24.52;47.61;98857.13;4994189;28;20456;-71
2023/06/24 05:20:17;;;;;;;5.10;4.57;;;24.90;64.60;;;25.01;45.57;98851.78;4989779;28;20950;-75
2023/06/24 05:22:44;;;;;;;5.20;4.70;;;25.20;63.30;;;24.40;46.86;98851.16;4983975;28;20464;-74
2023/06/24 05:25:11;;;;;;;5.20;4.70;;;25.00;62.80;;;24.54;46.81;98860.44;4987605;28;21300;-76
2023/06/24 05:27:40;;;;;;;5.40;4.90;;;25.10;62.50;;;25.68;44.56;98851.06;4981738;28;20488;-74
2023/06/24 05:30:09;;;;;;;4.97;4.47;;;25.70;61.90;;;26.02;43.67;98863.94;4980913;28;20475;-75
2023/06/24 05:32:36;;;;;;;5.30;4.63;;;26.00;61.20;;;24.72;46.08;98855.31;4985515;28;20470;-74
2023/06/24 05:35:04;;;;;;;4.57;4.17;;;25.40;61.10;;;25.34;43.98;98854.75;4984878;28;20452;-75
2023/06/24 05:37:31;;;;;;;4.03;3.73;;;25.80;60.60;;;24.90;45.39;98862.13;4985879;28;20443;-76
2023/06/24 05:40:01;;;;;;;3.90;3.60;;;25.50;60.10;;;25.44;43.94;98860.19;4968493;28;20488;-73
2023/06/24 05:42:28;;;;;;;4.87;4.47;;;25.90;59.40;;;24.98;44.54;98863.41;4984517;28;20575;-72
2023/06/24 05:44:57;;;;;;;4.73;4.17;;;25.90;58.80;;;24.59;45.72;98863.16;4984685;28;20553;-75
2023/06/24 05:47:24;;;;;;;5.00;4.50;;;25.60;58.90;;;26.33;42.35;98856.34;4986823;28;20487;-73
2023/06/24 05:49:51;;;;;;;4.20;3.80;;;26.00;59.30;;;26.01;42.98;98861.47;4967944;28;20460;-76
2023/06/24 05:52:19;;;;;;;4.57;3.60;;;26.60;58.10;;;26.29;41.99;98867.19;4988210;28;20459;-73
2023/06/24 05:54:46;;;;;;;3.80;3.50;;;26.80;57.40;;;25.36;43.41;98863.59;4982089;28;20552;-80
2023/06/24 05:57:14;;;;;;;3.33;3.03;;;26.40;57.10;;;26.10;41.58;98867.16;4985534;28;20452;-78
2023/06/24 05:59:41;;;;;;;3.70;3.40;;;26.50;56.60;;;25.99;42.47;98863.72;4991859;28;20499;-76
2023/06/24 06:02:10;;;;;;;3.87;3.30;;;26.30;57.20;;;26.15;41.20;98856.00;4973327;28;20482;-78
2023/06/24 06:04:39;;;;;;;4.33;3.90;;;26.50;56.30;;;26.09;41.94;98859.97;4968655;28;20527;-80
2023/06/24 06:07:07;;;;;;;4.30;3.90;;;26.60;56.20;;;25.18;42.87;98867.94;4987152;28;20776;-78
2023/06/24 06:09:34;;;;;;;3.40;3.10;;;26.20;55.90;;;25.20;43.56;98870.38;4989524;28;20485;-79
2023/06/24 06:12:01;;;;;;;4.77;3.60;;;26.10;56.60;;;25.07;44.15;98867.19;4972277;28;20448;-78
2023/06/24 06:14:29;;;;;;;3.50;3.20;;;26.10;56.60;;;25.81;42.27;98868.06;4993121;28;20468;-77
2023/06/24 06:16:56;;;;;;;4.27;3.87;;;26.30;56.30;;;24.85;43.80;98862.13;4988262;28;20470;-76
2023/06/24 06:19:25;;;;;;;5.67;4.50;;;26.10;55.70;;;24.51;44.99;98872.06;4968713;28;20468;-77
2023/06/24 06:21:53;;;;;;;3.67;3.27;;;25.80;56.10;;;24.96;43.64;98857.38;4981987;28;20502;-78
2023/06/24 06:24:20;;;;;;;4.17;3.77;;;25.90;56.00;;;25.78;42.34;98863.16;4970453;28;20453;-76
2023/06/24 06:26:48;;;;;;;4.17;3.87;;;26.20;55.80;;;26.30;40.56;98858.56;4987116;28;20457;-81
2023/06/24 06:29:15;;;;;;;4.40;3.80;;;26.50;55.10;;;27.05;39.67;98860.72;4983636;28;20958;-78
2023/06/24 06:31:43;;;;;;;4.20;2.90;;;26.90;54.90;;;25.11;42.15;98851.69;4981757;28;20501;-79
2023/06/24 06:34:10;;;;;;;4.13;3.20;;;26.40;54.30;;;22.88;47.13;98860.19;4975307;28;20463;-77
2023/06/24 06:36:39;;;;;;;3.87;3.50;;;24.70;55.40;;;21.98;49.92;98860.34;4985449;28;21033;-76
2023/06/24 06:39:06;;;;;;;3.63;3.30;;;23.30;57.00;;;21.59;52.11;98860.69;4985619;28;20538;-76
2023/06/24 06:41:33;;;;;;;4.43;3.60;;;22.40;59.10;;;20.91;52.34;98821.84;4982434;28;20477;-78
2023/06/24 06:44:00;;;;;;;4.03;3.50;;;21.70;59.90;;;21.26;52.87;98871.78;4984987;28;20520;-75
2023/06/24 06:46:29;;;;;;;3.67;3.30;;;21.50;61.60;;;21.13;52.32;98842.03;4982245;28;20459;-74
2023/06/24 06:48:56;;;;;;;4.07;3.67;;;21.40;61.50;;;21.05;52.58;98863.41;4977707;28;20448;-75
2023/06/24 06:51:24;;;;;;;3.93;3.53;;;21.30;62.10;;;20.98;53.29;98853.72;4984949;28;21023;-77
2023/06/24 06:53:53;;;;;;;4.43;2.97;;;21.20;62.50;;;20.63;53.61;98864.97;4964434;28;20513;-73
2023/06/24 06:56:24;;;;;;;3.13;2.77;;;21.00;62.70;;;20.71;52.33;98855.44;4970531;28;20532;-76
2023/06/24 06:58:51;;;;;;;3.73;3.33;;;20.80;61.60;;;20.57;52.76;98865.19;4986854;28;20463;-75
2023/06/24 07:01:20;;;;;;;3.90;3.60;;;20.70;62.00;;;20.85;52.82;98861.34;4980556;28;20506;-74
2023/06/24 07:03:49;;;;;;;5.73;3.20;;;20.80;62.80;;;20.75;53.64;98866.72;4988302;28;20484;-75
2023/06/24 07:06:19;;;;;;;4.77;3.40;;;20.90;63.30;;;20.96;53.31;98851.28;4973311;28;20454;-77
2023/06/24 07:08:47;;;;;;;6.47;3.37;;;21.10;64.00;;;20.93;52.53;98857.28;4984892;28;20457;-74
2023/06/24 07:11:15;;;;;;;3.57;3.27;;;21.00;62.90;;;20.94;53.02;98848.78;4982694;28;21203;-74
2023/06/24 07:13:42;;;;;;;4.43;3.43;;;20.90;63.50;;;20.80;53.58;98847.53;4980487;28;20468;-75
2023/06/24 07:16:10;;;;;;;5.00;4.00;;;20.90;63.80;;;20.88;53.12;98849.84;4982266;28;20992;-75
2023/06/24 07:18:37;;;;;;;4.00;3.37;;;20.90;63.80;;;21.11;52.72;98845.03;4985492;28;20471;-77
2023/06/24 07:21:06;;;;;;;3.70;3.40;;;21.00;63.90;;;21.22;52.94;98841.25;4967480;28;20549;-73
2023/06/24 07:23:33;;;;;;;3.70;3.40;;;21.20;64.20;;;21.36;53.51;98844.34;4968984;28;20533;-76
2023/06/24 07:26:01;;;;;;;4.23;3.83;;;21.40;64.90;;;21.48;53.45;98846.91;4970275;28;20454;-79
2023/06/24 07:28:30;;;;;;;4.57;3.90;;;21.40;64.80;;;21.73;52.28;98842.63;4981575;28;20551;-76
2023/06/24 07:30:57;;;;;;;4.23;3.80;;;21.70;64.50;;;21.33;52.86;98824.84;4993350;28;20456;-77
2023/06/24 07:33:25;;;;;;;4.33;3.93;;;21.60;64.10;;;21.63;52.84;98831.59;4947353;28;1167830;-75
2023/06/24 07:35:52;;;;;;;4.00;3.60;;;21.60;64.60;;;21.78;52.65;98834.41;4988966;28;20270;-77
2023/06/24 07:38:19;;;;;;;3.60;3.30;;;21.70;64.90;;;21.76;52.87;98836.63;4989994;28;20485;-75
2023/06/24 07:40:47;;;;;;;4.77;4.00;;;21.80;65.10;;;21.89;51.95;98824.28;4988081;28;20458;-75
2023/06/24 07:43:14;;;;;;;4.43;4.03;;;21.90;64.50;;;21.91;52.29;98833.06;4963484;28;20489;-74
2023/06/24 07:45:43;;;;;;;3.73;3.43;;;21.90;64.60;;;21.75;52.77;98834.13;4987825;28;20520;-76
2023/06/24 07:48:10;;;;;;;5.47;4.97;;;21.80;64.90;;;21.55;52.85;98829.34;4985394;28;20549;-74
2023/06/24 07:50:38;;;;;;;5.23;4.83;;;21.70;64.80;;;21.45;53.36;98835.63;4979046;28;20466;-74
2023/06/24 07:53:06;;;;;;;5.17;4.00;;;21.50;65.00;;;21.40;54.18;98833.66;4983010;28;20465;-74
2023/06/24 07:55:34;;;;;;;4.70;3.77;;;21.40;65.80;;;21.46;54.08;98827.13;4981480;28;20472;-74
2023/06/24 07:58:02;;;;;;;4.90;4.40;;;21.50;66.10;;;21.37;54.65;98831.44;4987470;28;20859;-74
2023/06/24 08:00:29;;;;;;;4.73;4.27;;;21.50;66.40;;;21.43;54.37;98833.13;4987131;28;20814;-75
2023/06/24 08:02:59;;;;;;;4.70;4.23;;;21.40;66.30;;;21.70;54.20;98823.94;4985004;28;20477;-75
2023/06/24 08:05:26;;;;;;;5.00;4.50;;;21.70;66.70;;;21.74;53.90;98826.97;4983247;28;20454;-73
2023/06/24 08:07:54;;;;;;;4.30;3.90;;;21.70;66.50;;;21.91;53.04;98826.72;4979939;28;20466;-74
2023/06/24 08:10:22;;;;;;;4.70;3.80;;;21.90;66.20;;;21.98;52.83;98835.56;4987719;28;20456;-74
2023/06/24 08:12:49;;;;;;;6.27;4.40;;;21.90;65.90;;;21.74;53.42;98827.78;4984216;28;20488;-75
2023/06/24 08:15:17;;;;;;;5.17;4.17;;;21.70;66.00;;;21.90;53.30;98836.09;4972250;28;20501;-74
2023/06/24 08:17:44;;;;;;;8.13;4.33;;;21.70;66.30;;;22.15;53.51;98831.75;4971219;28;21050;-74
2023/06/24 08:20:13;;;;;;;4.93;4.40;;;22.00;67.00;;;22.12;52.74;98843.31;4988791;28;20550;-74
2023/06/24 08:22:40;;;;;;;5.43;4.80;;;22.10;66.00;;;22.08;52.73;98838.34;4986533;28;20469;-73
2023/06/24 08:25:08;;;;;;;5.17;4.67;;;22.10;65.90;;;22.10;52.22;98849.06;4991477;28;20483;-74
2023/06/24 08:27:36;;;;;;;3.80;3.43;;;22.00;65.40;;;22.28;51.62;98836.75;4988535;28;20466;-74
2023/06/24 08:30:06;;;;;;;5.77;4.63;;;22.10;65.20;;;22.07;52.55;98836.72;4991843;28;20459;-74
2023/06/24 08:32:33;;;;;;;4.40;4.00;;;22.20;65.40;;;22.44;51.97;98839.50;4970742;28;20935;-74
2023/06/24 08:35:00;;;;;;;6.97;5.07;;;22.30;65.80;;;22.50;51.54;98832.91;4973221;28;20452;-73
2023/06/24 08:37:29;;;;;;;4.50;4.10;;;22.40;65.10;;;22.55;51.49;98835.69;4990730;28;20471;-74
2023/06/24 08:39:56;;;;;;;5.40;4.87;;;22.40;65.20;;;22.55;50.14;98826.59;4988468;28;20867;-74
2023/06/24 08:42:24;;;;;;;4.80;4.30;;;22.50;64.80;;;22.47;49.92;98831.56;4986664;28;20476;-74
2023/06/24 08:44:53;;;;;;;5.07;4.63;;;22.50;63.10;;;22.51;50.73;98823.56;4976174;28;20870;-75
2023/06/24 08:47:21;;;;;;;4.67;4.17;;;22.40;64.30;;;22.81;50.13;98832.91;4980694;28;20547;-73
2023/06/24 08:49:55;;;;;;;4.97;4.30;;;22.60;64.10;;;22.57;48.52;98813.38;4982422;28;20801;-73
2023/06/24 08:52:26;;;;;;;4.60;4.20;;;22.60;62.10;;;22.30;47.69;98839.22;4986005;28;21082;-73
2023/06/24 08:54:57;;;;;;;4.47;4.07;;;22.30;60.50;;;22.41;48.55;98834.56;4987369;28;20561;-73
2023/06/24 08:57:25;;;;;;;4.90;4.40;;;22.30;61.50;;;22.38;49.37;98835.09;4986527;28;21059;-74
2023/06/24 08:59:54;;;;;;;4.27;3.87;;;22.40;62.10;;;22.62;46.21;98839.00;4970860;28;20443;-74
2023/06/24 09:02:21;;;;;;;4.83;4.30;;;22.40;59.80;;;22.69;47.70;98835.16;4980133;28;20582;-73
2023/06/24 09:04:48;;;;;;;4.20;3.80;;;22.60;60.80;;;22.87;48.59;98836.50;4986971;28;20955;-73
2023/06/24 09:07:26;;;;;;;5.87;4.77;;;22.50;61.80;;;23.20;47.62;98834.22;4987669;28;20477;-74
2023/06/24 09:09:55;;;;;;;4.17;3.77;;;22.70;61.90;;;23.06;46.95;98836.75;4987966;28;20452;-75
2023/06/24 09:12:25;;;;;;;3.60;3.30;;;22.90;60.80;;;23.11;45.95;98822.97;4970041;28;20734;-75
2023/06/24 09:14:52;;;;;;;3.57;3.27;;;23.00;60.20;;;22.99;46.27;98826.03;4986523;28;20927;-73
2023/06/24 09:17:22;;;;;;;3.70;3.37;;;23.00;59.40;;;23.00;47.18;98829.63;4988079;28;20485;-73
2023/06/24 09:19:50;;;;;;;3.63;3.33;;;22.90;60.20;;;22.92;46.51;98829.06;4985417;28;20887;-73
2023/06/24 09:22:18;;;;;;;4.20;3.50;;;22.90;59.20;;;23.12;44.34;98830.13;4984411;28;20491;-74
2023/06/24 09:24:46;;;;;;;4.50;3.83;;;23.00;57.60;;;23.34;45.25;98817.97;4973739;28;20453;-73
2023/06/24 09:27:17;;;;;;;3.73;3.40;;;23.20;58.70;;;23.63;45.16;98820.09;4987429;28;20466;-75
2023/06/24 09:29:44;;;;;;;3.20;2.90;;;23.40;58.80;;;23.36;43.01;98814.97;4988252;28;20942;-74
2023/06/24 09:32:12;;;;;;;3.43;2.97;;;23.40;56.90;;;23.19;41.37;98816.88;4970728;28;20543;-74
2023/06/24 09:34:39;;;;;;;2.47;2.27;;;23.20;54.80;;;23.18;42.44;98819.91;4988359;28;20561;-74
2023/06/24 09:37:07;;;;;;;3.40;3.10;;;23.10;55.50;;;23.36;43.45;98813.00;4990018;28;20444;-74
2023/06/24 09:39:38;;;;;;;3.57;3.27;;;23.20;56.40;;;23.45;41.35;98819.59;4970577;28;20519;-74
2023/06/24 09:42:09;;;;;;;2.63;2.43;;;23.40;55.00;;;23.57;41.20;98815.69;4985903;28;20502;-73
2023/06/24 09:44:38;;;;;;;3.03;2.80;;;23.40;54.70;;;23.67;40.38;98803.81;4987791;28;20458;-75
2023/06/24 09:47:05;;;;;;;3.13;2.43;;;23.50;54.10;;;23.72;41.48;98807.34;4986908;28;20979;-74
2023/06/24 09:49:32;;;;;;;3.03;2.73;;;23.50;54.50;;;23.72;40.93;98801.81;4985441;28;21076;-73
2023/06/24 09:52:03;;;;;;;2.53;2.33;;;23.60;54.20;;;23.85;41.21;98805.91;4985498;28;20479;-74
2023/06/24 09:54:30;;;;;;;2.87;2.53;;;23.70;54.80;;;23.80;40.81;98799.59;4987740;28;20470;-74
2023/06/24 09:57:03;;;;;;;3.50;2.70;;;23.70;54.00;;;23.98;40.91;98785.13;4960975;28;20915;-72
2023/06/24 09:59:33;;;;;;;3.90;2.93;;;23.80;54.30;;;24.40;41.67;98782.13;4970428;28;20509;-74
2023/06/24 10:02:04;;;;;;;3.83;3.43;;;24.10;55.10;;;24.07;42.07;98779.84;4978628;28;20575;-72
2023/06/24 10:04:33;;;;;;;3.80;3.50;;;24.10;55.40;;;24.20;43.48;98781.16;4969524;28;20531;-73
2023/06/24 10:07:02;;;;;;;3.17;2.87;;;24.00;56.40;;;23.82;40.96;98784.41;4994230;28;20452;-73
2023/06/24 10:09:30;;;;;;;4.30;3.20;;;23.90;54.00;;;23.66;41.81;98778.16;4969008;28;20483;-72
2023/06/24 10:11:57;;;;;;;4.00;3.20;;;23.70;54.30;;;23.88;40.46;98780.50;4987815;28;20464;-72
2023/06/24 10:14:24;;;;;;;3.07;2.80;;;23.70;53.70;;;23.98;40.51;98782.38;4971873;28;20449;-74
2023/06/24 10:16:52;;;;;;;3.00;2.80;;;23.80;53.70;;;24.14;40.89;98777.63;4985178;28;20527;-73
2023/06/24 10:19:22;;;;;;;3.30;3.00;;;24.00;54.00;;;24.31;39.79;98768.09;4995048;28;20496;-73
2023/06/24 10:21:53;;;;;;;3.43;3.13;;;24.00;53.30;;;24.23;39.45;98761.25;4983678;28;20494;-72
2023/06/24 10:24:31;;;;;;;3.57;3.27;;;24.10;53.10;;;24.30;38.82;98767.28;4985638;28;20473;-73
2023/06/24 10:27:09;;;;;;;2.97;2.77;;;24.20;52.70;;;24.46;40.34;98758.84;4989316;28;20456;-75